Have a Safe July 4th! 

Flight Track Log - Related Links

Times and Time Zones

All times are in EDT time to prevent confusion due to time zone crossing. See the N120FS flight status page for this flight to view local times or setup timezone preferences in your user account.

Time Position Orientation Groundspeed Altitude Reporting Facility
EDT Latitude Longitude Course Direction KTS MPH feet Rate Location/Type
Wed 04:00:52 PM 33.8667 -84.3500 North 181 208 3,000  Level Atlanta TRACON
Wed 04:01:52 PM 33.8833 -84.4167 287° West 186 214 5,000 1,450 Climbing Atlanta TRACON
Wed 04:02:52 PM 33.9333 -84.4500 331° Northwest 213 245 5,900 600 Climbing Atlanta TRACON
Wed 04:03:52 PM 34.0000 -84.4667 348° North 248 285 6,200 652 Climbing Atlanta TRACON
Wed 04:04:24 PM 34.0272 -84.4725 350° North 259 298 6,900 1,761 Climbing Atlanta Center
Wed 04:05:24 PM 34.0794 -84.4903 344° North 223 257 8,900 1,000 Climbing Atlanta Center
Wed 04:06:00 PM 34.1874 -84.5667 North  Level FlightAware Approximate
Wed 04:06:24 PM 34.1419 -84.4856 North 198 228 8,900  Level Atlanta Center
Wed 04:07:24 PM 34.1983 -84.4583 22° Northeast 198 228 8,900 800 Level Atlanta Center
Wed 04:08:24 PM 34.2528 -84.4786 343° North 199 229 10,500 1,000 Climbing Atlanta Center
Wed 04:09:24 PM 34.3047 -84.5217 326° Northwest 208 239 10,900 200 Climbing Atlanta Center
Wed 04:10:24 PM 34.3669 -84.5697 327° Northwest 243 280 10,900 250 Level Atlanta Center
Wed 04:11:24 PM 34.4233 -84.6206 323° Northwest 258 297 11,400 500 Climbing Atlanta Center
Wed 04:12:24 PM 34.4772 -84.6739 321° Northwest 253 291 11,900 250 Climbing Atlanta Center
Wed 04:13:24 PM 34.5333 -84.7272 322° Northwest 253 291 11,900  Level Atlanta Center
Wed 04:14:24 PM 34.5892 -84.7831 321° Northwest 253 291 11,900 250 Level Atlanta Center
Wed 04:15:24 PM 34.6453 -84.8392 321° Northwest 253 291 12,400 950 Climbing Atlanta Center
Wed 04:16:24 PM 34.6931 -84.8900 319° Northwest 247 284 13,800 1,400 Climbing Atlanta Center
Wed 04:17:24 PM 34.7386 -84.9336 322° Northwest 226 260 15,200 1,150 Climbing Atlanta Center
Wed 04:18:24 PM 34.7819 -84.9769 321° Northwest 210 242 16,100 400 Climbing Atlanta Center
Wed 04:19:24 PM 34.8358 -85.0283 322° Northwest 218 251 16,000 -50 Descending Atlanta Center
Wed 04:20:24 PM 34.8897 -85.0847 319° Northwest 236 272 16,000  Level Atlanta Center
Wed 04:21:24 PM 34.9475 -85.1411 321° Northwest 251 289 16,000 600 Level Atlanta Center
Wed 04:22:24 PM 34.9931 -85.2025 312° West 256 295 17,200 1,165 Climbing Atlanta Center
Wed 04:24:50 PM 35.0972 -85.3294 315° West 223 257 20,000 1,078 Climbing Memphis Center
Wed 04:25:50 PM 35.1347 -85.3806 312° West 213 245 20,900 900 Climbing Memphis Center
Wed 04:26:50 PM 35.1744 -85.4314 314° West 213 245 21,800 550 Climbing Memphis Center
Wed 04:27:50 PM 35.2183 -85.4875 314° West 213 245 22,000 100 Climbing Memphis Center
Wed 04:28:50 PM 35.2689 -85.5506 314° West 237 273 22,000  Level Memphis Center
Wed 04:30:00 PM 35.3242 -85.6211 314° West  Level FlightAware Approximate
Wed 04:30:50 PM 35.3697 -85.6797 314° West 260 299 22,000  Level Memphis Center
Wed 04:31:50 PM 35.4200 -85.7456 313° West 260 299 22,000  Level Memphis Center
Wed 04:32:50 PM 35.4706 -85.8117 313° West 260 299 22,000  Level Memphis Center
Wed 04:33:50 PM 35.5208 -85.8753 314° West 260 299 22,000  Level Memphis Center
Wed 04:34:50 PM 35.5711 -85.9439 312° West 260 299 22,000  Level Memphis Center
Wed 04:35:50 PM 35.6172 -86.0028 314° West 260 299 22,000  Level Memphis Center
Wed 04:36:50 PM 35.6672 -86.0667 314° West 260 299 22,000  Level Memphis Center
Wed 04:37:50 PM 35.7175 -86.1356 312° West 260 299 22,000  Level Memphis Center
Wed 04:38:50 PM 35.7719 -86.2044 314° West 260 299 22,000  Level Memphis Center
Wed 04:39:50 PM 35.8222 -86.2711 313° West 265 305 22,000  Level Memphis Center
Wed 04:40:50 PM 35.8725 -86.3378 313° West 265 305 22,000  Level Memphis Center
Wed 04:41:50 PM 35.9264 -86.3992 317° Northwest 265 305 22,000  Level Memphis Center
Wed 04:42:50 PM 35.9786 -86.4608 316° Northwest 265 305 22,000  Level Memphis Center
Wed 04:43:50 PM 36.0325 -86.5222 317° Northwest 265 305 22,000  Level Memphis Center
Wed 04:44:50 PM 36.0864 -86.5814 318° Northwest 265 305 22,000  Level Memphis Center
Wed 04:45:50 PM 36.1403 -86.6406 318° Northwest 260 299 22,000  Level Memphis Center
Wed 04:46:50 PM 36.1922 -86.7000 317° Northwest 260 299 22,000  Level Memphis Center
Wed 04:47:50 PM 36.2439 -86.7542 320° Northwest 254 292 22,000  Level Memphis Center
Wed 04:48:50 PM 36.3039 -86.8133 322° Northwest 249 287 22,000  Level Memphis Center
Wed 04:49:50 PM 36.3675 -86.8492 336° Northwest 259 298 22,000  Level Memphis Center
Wed 04:50:50 PM 36.4578 -86.8764 346° North 283 326 22,000  Level Memphis Center
Wed 04:51:50 PM 36.5292 -86.8914 350° North 262 302 22,000  Level Memphis Center
Wed 04:52:50 PM 36.5981 -86.8961 357° North 256 295 22,000  Level Memphis Center
Wed 04:53:50 PM 36.6606 -86.9014 356° North 256 295 22,000  Level Memphis Center
Wed 04:54:50 PM 36.7339 -86.9058 357° North 256 295 22,000  Level Memphis Center
Wed 04:55:50 PM 36.8028 -86.9106 357° North 256 295 22,000  Level Memphis Center
Wed 04:56:50 PM 36.8717 -86.9156 357° North 256 295 22,000  Level Memphis Center
Wed 04:57:50 PM 36.9425 -86.9203 357° North 259 298 22,000  Level Memphis Center
Wed 04:58:50 PM 37.0114 -86.9225 359° North 254 292 22,000  Level Memphis Center
Wed 05:01:05 PM 37.1778 -86.9231 360° North 273 314 22,000 -122 Level Indianapolis Center
Wed 05:02:06 PM 37.2536 -86.9256 358° North 271 312 21,600 -1,024 Descending Indianapolis Center
Wed 05:03:08 PM 37.3503 -86.9286 359° North 294 338 19,900 -1,610 Descending Indianapolis Center
Wed 05:04:09 PM 37.4358 -86.9303 359° North 303 349 18,300 -1,525 Descending Indianapolis Center
Wed 05:05:10 PM 37.5214 -86.9331 359° North 303 349 16,800 -1,415 Descending Indianapolis Center
Wed 05:06:12 PM 37.5975 -86.9356 359° North 300 345 15,400 -1,415 Descending Indianapolis Center
Wed 05:07:13 PM 37.6792 -86.9372 359° North 294 338 13,900 -1,525 Descending Indianapolis Center
Wed 05:08:14 PM 37.7619 -86.9394 359° North 296 341 12,300 -1,659 Descending Indianapolis Center
Wed 05:09:16 PM 37.8403 -86.9417 359° North 282 325 10,500 -1,951 Descending Indianapolis Center
Wed 05:10:17 PM 37.9325 -86.9444 359° North 275 316 8,300 -1,967 Descending Indianapolis Center
Wed 05:11:18 PM 38.0094 -86.9439 360° North 276 318 6,500 -1,770 Descending Indianapolis Center
Wed 05:12:19 PM 38.0869 -86.9264 10° North 281 323 4,700 -1,756 Descending Indianapolis Center
Wed 05:13:21 PM 38.1589 -86.9150 North 267 307 2,900 -1,415 Descending Indianapolis Center
Wed 05:14:22 PM 38.2203 -86.9056 North 240 276 1,800 -934 Descending Indianapolis Center
Wed 05:15:23 PM 38.2481 -86.9233 333° Northwest 170 196 1,000 -639 Descending Indianapolis Center
Wed 05:16:24 PM 38.2486 -86.9697 271° West 145 167 500 -492 Descending Indianapolis Center

Login

Don't have an account? Register now (free) for customized features, flight alerts, and more!